RYR77WP LEPA-LEMD
Flight info
| Callsign | RYR77WP |
|---|---|
| Flight time | 1h 2m |
| Altitude | 31000 |
| Route | EPAMA N733 PRADO |
| Aircraft | B738/M-SDE3FGILRWY/SB1 |
Departure
| Time | 2026-05-06 11:09 |
|---|---|
| Airport | Palma de Mallorca Airport (LEPA) |
Arrival
| Time | 2026-05-06 12:11 |
|---|---|
| Airport | Adolfo Suárez Madrid–Barajas Airport (LEMD) |
| Time | Latitude | Longitude | Altitude | Speed | Heading |
|---|---|---|---|---|---|
| 2026-05-06 10:43 | 39.55001 | 2.73280 | 24 ft | 0 kts | 186° |
| 2026-05-06 10:59 | 39.55009 | 2.73281 | 24 ft | 2 kts | 192° |
| 2026-05-06 10:59 | 39.55023 | 2.73287 | 24 ft | 2 kts | 210° |
| 2026-05-06 10:59 | 39.55036 | 2.73299 | 24 ft | 2 kts | 224° |
| 2026-05-06 10:59 | 39.55045 | 2.73314 | 24 ft | 2 kts | 238° |
| 2026-05-06 11:00 | 39.55053 | 2.73331 | 25 ft | 2 kts | 239° |
| 2026-05-06 11:00 | 39.55061 | 2.73347 | 25 ft | 2 kts | 239° |
| 2026-05-06 11:00 | 39.55069 | 2.73364 | 25 ft | 2 kts | 239° |
| 2026-05-06 11:00 | 39.55076 | 2.73380 | 26 ft | 2 kts | 239° |
| 2026-05-06 11:01 | 39.55078 | 2.73385 | 26 ft | 0 kts | 239° |
| 2026-05-06 11:03 | 39.55078 | 2.73384 | 26 ft | 0 kts | 239° |
| 2026-05-06 11:03 | 39.55053 | 2.73361 | 25 ft | 6 kts | 189° |
| 2026-05-06 11:04 | 39.55037 | 2.73388 | 26 ft | 4 kts | 76° |
| 2026-05-06 11:04 | 39.55069 | 2.73465 | 30 ft | 11 kts | 56° |
| 2026-05-06 11:04 | 39.55097 | 2.73519 | 35 ft | 4 kts | 58° |
| 2026-05-06 11:04 | 39.55120 | 2.73569 | 39 ft | 8 kts | 60° |
| 2026-05-06 11:05 | 39.55163 | 2.73636 | 42 ft | 9 kts | 12° |
| 2026-05-06 11:05 | 39.55236 | 2.73589 | 41 ft | 18 kts | 328° |
| 2026-05-06 11:05 | 39.55369 | 2.73483 | 26 ft | 25 kts | 328° |
| 2026-05-06 11:05 | 39.55465 | 2.73492 | 22 ft | 16 kts | 60° |
| 2026-05-06 11:06 | 39.55521 | 2.73575 | 20 ft | 9 kts | 345° |
| 2026-05-06 11:06 | 39.55606 | 2.73511 | 16 ft | 17 kts | 332° |
| 2026-05-06 11:06 | 39.55678 | 2.73554 | 13 ft | 13 kts | 59° |
| 2026-05-06 11:06 | 39.55757 | 2.73722 | 9 ft | 26 kts | 59° |
| 2026-05-06 11:07 | 39.55862 | 2.73938 | 10 ft | 28 kts | 59° |
| 2026-05-06 11:07 | 39.55957 | 2.74146 | 15 ft | 25 kts | 59° |
| 2026-05-06 11:07 | 39.56083 | 2.74295 | 13 ft | 24 kts | 34° |
| 2026-05-06 11:07 | 39.56190 | 2.74373 | 10 ft | 10 kts | 4° |
| 2026-05-06 11:08 | 39.56248 | 2.74328 | 10 ft | 9 kts | 277° |
| 2026-05-06 11:08 | 39.56243 | 2.74304 | 10 ft | 0 kts | 242° |
| 2026-05-06 11:08 | 39.56242 | 2.74301 | 10 ft | 3 kts | 242° |
| 2026-05-06 11:08 | 39.56125 | 2.74054 | 12 ft | 67 kts | 239° |
| 2026-05-06 11:09 | 39.55765 | 2.73295 | 12 ft | 129 kts | 239° |
| 2026-05-06 11:09 | 39.55210 | 2.72119 | 136 ft | 166 kts | 239° |
| 2026-05-06 11:09 | 39.54666 | 2.70889 | 804 ft | 162 kts | 241° |
| 2026-05-06 11:09 | 39.54040 | 2.69569 | 1230 ft | 179 kts | 237° |
| 2026-05-06 11:10 | 39.53312 | 2.68173 | 1635 ft | 198 kts | 237° |
| 2026-05-06 11:10 | 39.52493 | 2.66616 | 1974 ft | 221 kts | 236° |
| 2026-05-06 11:10 | 39.51649 | 2.65002 | 2785 ft | 219 kts | 238° |
| 2026-05-06 11:10 | 39.50808 | 2.63317 | 3363 ft | 228 kts | 238° |
| 2026-05-06 11:11 | 39.49956 | 2.61597 | 4121 ft | 229 kts | 238° |
| 2026-05-06 11:11 | 39.49089 | 2.59863 | 4835 ft | 231 kts | 238° |
| 2026-05-06 11:11 | 39.48216 | 2.58131 | 5634 ft | 230 kts | 238° |
| 2026-05-06 11:11 | 39.47352 | 2.56430 | 6501 ft | 228 kts | 238° |
| 2026-05-06 11:12 | 39.46486 | 2.54723 | 7193 ft | 232 kts | 238° |
| 2026-05-06 11:12 | 39.45599 | 2.52971 | 7930 ft | 235 kts | 238° |
| 2026-05-06 11:12 | 39.44840 | 2.51076 | 8533 ft | 244 kts | 257° |
| 2026-05-06 11:12 | 39.44907 | 2.48889 | 9116 ft | 257 kts | 289° |
| 2026-05-06 11:13 | 39.45712 | 2.46782 | 9724 ft | 270 kts | 297° |
| 2026-05-06 11:13 | 39.46503 | 2.44528 | 10350 ft | 278 kts | 288° |
| 2026-05-06 11:13 | 39.47016 | 2.42131 | 11225 ft | 277 kts | 281° |
| 2026-05-06 11:13 | 39.47368 | 2.39734 | 12043 ft | 277 kts | 278° |
| 2026-05-06 11:14 | 39.47680 | 2.37252 | 12940 ft | 280 kts | 277° |
| 2026-05-06 11:14 | 39.47986 | 2.34787 | 13719 ft | 283 kts | 276° |
| 2026-05-06 11:14 | 39.48303 | 2.32303 | 14557 ft | 284 kts | 276° |
| 2026-05-06 11:14 | 39.48633 | 2.29774 | 15332 ft | 287 kts | 277° |
| 2026-05-06 11:15 | 39.48967 | 2.27232 | 16031 ft | 291 kts | 276° |
| 2026-05-06 11:15 | 39.49303 | 2.24663 | 16768 ft | 293 kts | 276° |
| 2026-05-06 11:15 | 39.49640 | 2.22077 | 17638 ft | 295 kts | 276° |
| 2026-05-06 11:15 | 39.49985 | 2.19431 | 18386 ft | 299 kts | 276° |
| 2026-05-06 11:16 | 39.50331 | 2.16782 | 19106 ft | 301 kts | 276° |
| 2026-05-06 11:16 | 39.50677 | 2.14116 | 19737 ft | 305 kts | 276° |
| 2026-05-06 11:16 | 39.51026 | 2.11435 | 20427 ft | 307 kts | 276° |
| 2026-05-06 11:16 | 39.51382 | 2.08702 | 21136 ft | 308 kts | 276° |
| 2026-05-06 11:17 | 39.51736 | 2.05966 | 21769 ft | 311 kts | 276° |
| 2026-05-06 11:17 | 39.52090 | 2.03228 | 22383 ft | 313 kts | 276° |
| 2026-05-06 11:17 | 39.52451 | 2.00435 | 22993 ft | 315 kts | 276° |
| 2026-05-06 11:17 | 39.52810 | 1.97646 | 23577 ft | 317 kts | 276° |
| 2026-05-06 11:18 | 39.53169 | 1.94852 | 24172 ft | 319 kts | 276° |
| 2026-05-06 11:18 | 39.53535 | 1.92000 | 24773 ft | 321 kts | 276° |
| 2026-05-06 11:18 | 39.53899 | 1.89149 | 25286 ft | 324 kts | 275° |
| 2026-05-06 11:18 | 39.54263 | 1.86294 | 25844 ft | 325 kts | 275° |
| 2026-05-06 11:19 | 39.54634 | 1.83399 | 26396 ft | 326 kts | 275° |
| 2026-05-06 11:19 | 39.55002 | 1.80509 | 26892 ft | 329 kts | 275° |
| 2026-05-06 11:19 | 39.55371 | 1.77594 | 27369 ft | 331 kts | 275° |
| 2026-05-06 11:19 | 39.55743 | 1.74666 | 27885 ft | 332 kts | 275° |
| 2026-05-06 11:20 | 39.56116 | 1.71713 | 28325 ft | 335 kts | 275° |
| 2026-05-06 11:20 | 39.56491 | 1.68736 | 28821 ft | 336 kts | 275° |
| 2026-05-06 11:20 | 39.56869 | 1.65736 | 29296 ft | 338 kts | 275° |
| 2026-05-06 11:20 | 39.57244 | 1.62755 | 29736 ft | 340 kts | 275° |
| 2026-05-06 11:21 | 39.57627 | 1.59700 | 30184 ft | 341 kts | 275° |
| 2026-05-06 11:21 | 39.58002 | 1.56698 | 30570 ft | 344 kts | 275° |
| 2026-05-06 11:21 | 39.58385 | 1.53618 | 30918 ft | 346 kts | 275° |
| 2026-05-06 11:22 | 39.59152 | 1.47468 | 30950 ft | 343 kts | 275° |
| 2026-05-06 11:22 | 39.59903 | 1.41369 | 30944 ft | 346 kts | 274° |
| 2026-05-06 11:23 | 39.60193 | 1.35219 | 30959 ft | 341 kts | 265° |
| 2026-05-06 11:23 | 39.59884 | 1.29107 | 30955 ft | 340 kts | 263° |
| 2026-05-06 11:24 | 39.59502 | 1.23021 | 30950 ft | 340 kts | 263° |
| 2026-05-06 11:24 | 39.59139 | 1.16916 | 30949 ft | 340 kts | 263° |
| 2026-05-06 11:25 | 39.58786 | 1.10827 | 30959 ft | 339 kts | 263° |
| 2026-05-06 11:25 | 39.58438 | 1.04786 | 30944 ft | 337 kts | 263° |
| 2026-05-06 11:26 | 39.58084 | 0.98716 | 30948 ft | 339 kts | 263° |
| 2026-05-06 11:26 | 39.57729 | 0.92648 | 30956 ft | 338 kts | 263° |
| 2026-05-06 11:27 | 39.57374 | 0.86636 | 30951 ft | 339 kts | 263° |
| 2026-05-06 11:27 | 39.57014 | 0.80598 | 30944 ft | 336 kts | 263° |
| 2026-05-06 11:28 | 39.56648 | 0.74546 | 30957 ft | 338 kts | 263° |
| 2026-05-06 11:28 | 39.56279 | 0.68475 | 30948 ft | 338 kts | 263° |
| 2026-05-06 11:29 | 39.55910 | 0.62445 | 30950 ft | 338 kts | 263° |
| 2026-05-06 11:29 | 39.55537 | 0.56395 | 30943 ft | 338 kts | 263° |
| 2026-05-06 11:30 | 39.55158 | 0.50308 | 30953 ft | 340 kts | 263° |
| 2026-05-06 11:30 | 39.54780 | 0.44277 | 30933 ft | 337 kts | 263° |
| 2026-05-06 11:31 | 39.54396 | 0.38216 | 30937 ft | 336 kts | 263° |
| 2026-05-06 11:31 | 39.54013 | 0.32193 | 30942 ft | 337 kts | 262° |
| 2026-05-06 11:32 | 39.53624 | 0.26150 | 30951 ft | 336 kts | 263° |
| 2026-05-06 11:32 | 39.53236 | 0.20185 | 30945 ft | 334 kts | 263° |
| 2026-05-06 11:33 | 39.52843 | 0.14186 | 30937 ft | 337 kts | 263° |
| 2026-05-06 11:33 | 39.52443 | 0.08139 | 30938 ft | 336 kts | 263° |
| 2026-05-06 11:34 | 39.52043 | 0.02136 | 30933 ft | 338 kts | 263° |
| 2026-05-06 11:34 | 39.51637 | -0.03913 | 30941 ft | 337 kts | 263° |
| 2026-05-06 11:35 | 39.51233 | -0.09907 | 30941 ft | 334 kts | 263° |
| 2026-05-06 11:35 | 39.50827 | -0.15892 | 30952 ft | 336 kts | 263° |
| 2026-05-06 11:36 | 39.50413 | -0.21934 | 30966 ft | 335 kts | 263° |
| 2026-05-06 11:36 | 39.49997 | -0.27923 | 30956 ft | 336 kts | 263° |
| 2026-05-06 11:37 | 39.49575 | -0.33970 | 30983 ft | 337 kts | 263° |
| 2026-05-06 11:37 | 39.49153 | -0.40000 | 30960 ft | 336 kts | 263° |
| 2026-05-06 11:38 | 39.48928 | -0.46059 | 30971 ft | 338 kts | 271° |
| 2026-05-06 11:38 | 39.49351 | -0.49102 | 30961 ft | 344 kts | 282° |
| 2026-05-06 11:38 | 39.50224 | -0.51967 | 30970 ft | 351 kts | 290° |
| 2026-05-06 11:39 | 39.52570 | -0.57537 | 30975 ft | 353 kts | 294° |
| 2026-05-06 11:39 | 39.55053 | -0.63039 | 30971 ft | 353 kts | 294° |
| 2026-05-06 11:40 | 39.57517 | -0.68549 | 30959 ft | 353 kts | 293° |
| 2026-05-06 11:40 | 39.59952 | -0.74054 | 30977 ft | 353 kts | 293° |
| 2026-05-06 11:41 | 39.62373 | -0.79550 | 30959 ft | 352 kts | 293° |
| 2026-05-06 11:41 | 39.64798 | -0.85067 | 30982 ft | 352 kts | 293° |
| 2026-05-06 11:42 | 39.67211 | -0.90580 | 30946 ft | 353 kts | 293° |
| 2026-05-06 11:42 | 39.69634 | -0.96113 | 30962 ft | 353 kts | 293° |
| 2026-05-06 11:43 | 39.72043 | -1.01641 | 30965 ft | 352 kts | 293° |
| 2026-05-06 11:43 | 39.74446 | -1.07167 | 30965 ft | 352 kts | 293° |
| 2026-05-06 11:44 | 39.78052 | -1.15456 | 30968 ft | 352 kts | 293° |
| 2026-05-06 11:44 | 39.80485 | -1.21034 | 30975 ft | 353 kts | 293° |
| 2026-05-06 11:45 | 39.82882 | -1.26549 | 30996 ft | 353 kts | 293° |
| 2026-05-06 11:45 | 39.85291 | -1.32117 | 30993 ft | 353 kts | 293° |
| 2026-05-06 11:46 | 39.87689 | -1.37671 | 30987 ft | 353 kts | 293° |
| 2026-05-06 11:46 | 39.88877 | -1.40418 | 30825 ft | 347 kts | 293° |
| 2026-05-06 11:46 | 39.90046 | -1.43122 | 30533 ft | 341 kts | 293° |
| 2026-05-06 11:47 | 39.91214 | -1.45837 | 30134 ft | 346 kts | 294° |
| 2026-05-06 11:47 | 39.92385 | -1.48566 | 29661 ft | 347 kts | 294° |
| 2026-05-06 11:47 | 39.93559 | -1.51298 | 29210 ft | 344 kts | 294° |
| 2026-05-06 11:47 | 39.94715 | -1.53986 | 28754 ft | 341 kts | 294° |
| 2026-05-06 11:48 | 39.95863 | -1.56658 | 28319 ft | 338 kts | 294° |
| 2026-05-06 11:48 | 39.97004 | -1.59319 | 27867 ft | 335 kts | 294° |
| 2026-05-06 11:48 | 39.98129 | -1.61946 | 27428 ft | 332 kts | 294° |
| 2026-05-06 11:48 | 39.99248 | -1.64560 | 26990 ft | 328 kts | 294° |
| 2026-05-06 11:49 | 40.00361 | -1.67163 | 26572 ft | 325 kts | 294° |
| 2026-05-06 11:49 | 40.01446 | -1.69700 | 26156 ft | 323 kts | 294° |
| 2026-05-06 11:49 | 40.02542 | -1.72268 | 25711 ft | 320 kts | 294° |
| 2026-05-06 11:49 | 40.03618 | -1.74788 | 25306 ft | 317 kts | 294° |
| 2026-05-06 11:50 | 40.04680 | -1.77278 | 24893 ft | 315 kts | 294° |
| 2026-05-06 11:50 | 40.05741 | -1.79770 | 24468 ft | 313 kts | 294° |
| 2026-05-06 11:50 | 40.06788 | -1.82234 | 24071 ft | 317 kts | 294° |
| 2026-05-06 11:50 | 40.07863 | -1.84771 | 23622 ft | 318 kts | 295° |
| 2026-05-06 11:51 | 40.08918 | -1.87255 | 23237 ft | 315 kts | 295° |
| 2026-05-06 11:51 | 40.09981 | -1.89755 | 22822 ft | 312 kts | 295° |
| 2026-05-06 11:51 | 40.11026 | -1.92217 | 22420 ft | 309 kts | 295° |
| 2026-05-06 11:51 | 40.12065 | -1.94672 | 21997 ft | 307 kts | 296° |
| 2026-05-06 11:52 | 40.13081 | -1.97069 | 21608 ft | 304 kts | 296° |
| 2026-05-06 11:52 | 40.14103 | -1.99487 | 21203 ft | 301 kts | 295° |
| 2026-05-06 11:52 | 40.15099 | -2.01847 | 20960 ft | 299 kts | 296° |
| 2026-05-06 11:52 | 40.16129 | -2.04288 | 20702 ft | 308 kts | 296° |
| 2026-05-06 11:53 | 40.17155 | -2.06710 | 20436 ft | 306 kts | 296° |
| 2026-05-06 11:53 | 40.18190 | -2.09150 | 20194 ft | 304 kts | 296° |
| 2026-05-06 11:53 | 40.19207 | -2.11554 | 19965 ft | 304 kts | 297° |
| 2026-05-06 11:53 | 40.20229 | -2.13974 | 19692 ft | 304 kts | 296° |
| 2026-05-06 11:54 | 40.21251 | -2.16397 | 19435 ft | 303 kts | 297° |
| 2026-05-06 11:54 | 40.22253 | -2.18775 | 19185 ft | 302 kts | 297° |
| 2026-05-06 11:54 | 40.23270 | -2.21186 | 18939 ft | 302 kts | 297° |
| 2026-05-06 11:54 | 40.24281 | -2.23588 | 18696 ft | 301 kts | 297° |
| 2026-05-06 11:55 | 40.25263 | -2.25976 | 18395 ft | 296 kts | 295° |
| 2026-05-06 11:55 | 40.25997 | -2.28432 | 18018 ft | 292 kts | 284° |
| 2026-05-06 11:55 | 40.26269 | -2.31068 | 17623 ft | 290 kts | 273° |
| 2026-05-06 11:55 | 40.26282 | -2.33681 | 17246 ft | 295 kts | 270° |
| 2026-05-06 11:56 | 40.26235 | -2.36419 | 16825 ft | 299 kts | 270° |
| 2026-05-06 11:56 | 40.26191 | -2.39098 | 16436 ft | 297 kts | 270° |
| 2026-05-06 11:56 | 40.26160 | -2.41805 | 16039 ft | 296 kts | 270° |
| 2026-05-06 11:56 | 40.26141 | -2.44474 | 15642 ft | 294 kts | 271° |
| 2026-05-06 11:57 | 40.26126 | -2.47123 | 15245 ft | 293 kts | 271° |
| 2026-05-06 11:57 | 40.26112 | -2.49770 | 14854 ft | 291 kts | 270° |
| 2026-05-06 11:57 | 40.26097 | -2.52429 | 14467 ft | 290 kts | 270° |
| 2026-05-06 11:57 | 40.26081 | -2.55033 | 14212 ft | 284 kts | 270° |
| 2026-05-06 11:58 | 40.26064 | -2.57568 | 14098 ft | 273 kts | 270° |
| 2026-05-06 11:58 | 40.26047 | -2.59972 | 13988 ft | 264 kts | 271° |
| 2026-05-06 11:58 | 40.26038 | -2.62390 | 13979 ft | 265 kts | 271° |
| 2026-05-06 11:58 | 40.26034 | -2.64793 | 13969 ft | 267 kts | 271° |
| 2026-05-06 11:59 | 40.26030 | -2.67226 | 13963 ft | 266 kts | 270° |
| 2026-05-06 11:59 | 40.26025 | -2.69621 | 13899 ft | 262 kts | 270° |
| 2026-05-06 11:59 | 40.26018 | -2.72004 | 13661 ft | 258 kts | 270° |
| 2026-05-06 11:59 | 40.26010 | -2.74363 | 13356 ft | 261 kts | 270° |
| 2026-05-06 12:00 | 40.26003 | -2.76737 | 13032 ft | 265 kts | 270° |
| 2026-05-06 12:00 | 40.25994 | -2.79152 | 12710 ft | 264 kts | 270° |
| 2026-05-06 12:00 | 40.25985 | -2.81520 | 12403 ft | 262 kts | 270° |
| 2026-05-06 12:00 | 40.25975 | -2.83913 | 12089 ft | 261 kts | 270° |
| 2026-05-06 12:01 | 40.25965 | -2.86251 | 11778 ft | 260 kts | 270° |
| 2026-05-06 12:01 | 40.25955 | -2.88623 | 11464 ft | 259 kts | 270° |
| 2026-05-06 12:01 | 40.25944 | -2.90965 | 11166 ft | 258 kts | 270° |
| 2026-05-06 12:01 | 40.25932 | -2.93330 | 10845 ft | 258 kts | 269° |
| 2026-05-06 12:02 | 40.25921 | -2.95637 | 10540 ft | 257 kts | 269° |
| 2026-05-06 12:02 | 40.25909 | -2.97987 | 10236 ft | 256 kts | 269° |
| 2026-05-06 12:02 | 40.25897 | -3.00283 | 9938 ft | 255 kts | 269° |
| 2026-05-06 12:02 | 40.25883 | -3.02592 | 9645 ft | 254 kts | 269° |
| 2026-05-06 12:03 | 40.25869 | -3.04893 | 9346 ft | 253 kts | 269° |
| 2026-05-06 12:03 | 40.25856 | -3.07189 | 9054 ft | 252 kts | 269° |
| 2026-05-06 12:03 | 40.25841 | -3.09470 | 8756 ft | 251 kts | 269° |
| 2026-05-06 12:03 | 40.25827 | -3.11766 | 8464 ft | 251 kts | 269° |
| 2026-05-06 12:04 | 40.25868 | -3.14040 | 8173 ft | 251 kts | 275° |
| 2026-05-06 12:04 | 40.26115 | -3.16305 | 7865 ft | 251 kts | 280° |
| 2026-05-06 12:04 | 40.26431 | -3.18512 | 7585 ft | 249 kts | 281° |
| 2026-05-06 12:04 | 40.26752 | -3.20742 | 7308 ft | 248 kts | 280° |
| 2026-05-06 12:05 | 40.27059 | -3.22954 | 7036 ft | 246 kts | 280° |
| 2026-05-06 12:05 | 40.27350 | -3.25139 | 6821 ft | 248 kts | 280° |
| 2026-05-06 12:05 | 40.27640 | -3.27349 | 6561 ft | 246 kts | 280° |
| 2026-05-06 12:05 | 40.27924 | -3.29538 | 6287 ft | 244 kts | 280° |
| 2026-05-06 12:06 | 40.28210 | -3.31713 | 6072 ft | 239 kts | 281° |
| 2026-05-06 12:06 | 40.28635 | -3.33772 | 5992 ft | 229 kts | 290° |
| 2026-05-06 12:06 | 40.29193 | -3.35684 | 5952 ft | 228 kts | 292° |
| 2026-05-06 12:06 | 40.29796 | -3.37618 | 5633 ft | 229 kts | 295° |
| 2026-05-06 12:07 | 40.30641 | -3.39359 | 5314 ft | 228 kts | 313° |
| 2026-05-06 12:07 | 40.31807 | -3.40739 | 5048 ft | 224 kts | 322° |
| 2026-05-06 12:07 | 40.33007 | -3.41962 | 4983 ft | 211 kts | 323° |
| 2026-05-06 12:07 | 40.34116 | -3.43095 | 4947 ft | 197 kts | 322° |
| 2026-05-06 12:08 | 40.35203 | -3.44200 | 4672 ft | 195 kts | 323° |
| 2026-05-06 12:08 | 40.36265 | -3.45270 | 4404 ft | 194 kts | 323° |
| 2026-05-06 12:08 | 40.37320 | -3.46331 | 4144 ft | 191 kts | 323° |
| 2026-05-06 12:08 | 40.38362 | -3.47379 | 3905 ft | 180 kts | 323° |
| 2026-05-06 12:09 | 40.39324 | -3.48350 | 3664 ft | 176 kts | 323° |
| 2026-05-06 12:09 | 40.40277 | -3.49310 | 3422 ft | 165 kts | 323° |
| 2026-05-06 12:09 | 40.41145 | -3.50184 | 3213 ft | 152 kts | 323° |
| 2026-05-06 12:09 | 40.41979 | -3.51032 | 3009 ft | 153 kts | 323° |
| 2026-05-06 12:10 | 40.42812 | -3.51883 | 2810 ft | 152 kts | 323° |
| 2026-05-06 12:10 | 40.43660 | -3.52707 | 2617 ft | 152 kts | 324° |
| 2026-05-06 12:10 | 40.44511 | -3.53556 | 2398 ft | 152 kts | 322° |
| 2026-05-06 12:10 | 40.45343 | -3.54412 | 2189 ft | 151 kts | 322° |
| 2026-05-06 12:11 | 40.46167 | -3.55241 | 2023 ft | 151 kts | 322° |
| 2026-05-06 12:11 | 40.46977 | -3.56069 | 1964 ft | 138 kts | 323° |
| 2026-05-06 12:11 | 40.47601 | -3.56700 | 1976 ft | 86 kts | 322° |
| 2026-05-06 12:11 | 40.47952 | -3.57058 | 1985 ft | 42 kts | 322° |
| 2026-05-06 12:12 | 40.48109 | -3.57263 | 1990 ft | 28 kts | 303° |
| 2026-05-06 12:12 | 40.48174 | -3.57471 | 1995 ft | 14 kts | 269° |
| 2026-05-06 12:12 | 40.48110 | -3.57487 | 1995 ft | 11 kts | 146° |
| 2026-05-06 12:12 | 40.48025 | -3.57404 | 1992 ft | 21 kts | 143° |
| 2026-05-06 12:13 | 40.47892 | -3.57267 | 1990 ft | 24 kts | 142° |
| 2026-05-06 12:13 | 40.47752 | -3.57123 | 1985 ft | 26 kts | 142° |
| 2026-05-06 12:13 | 40.47606 | -3.56978 | 1982 ft | 26 kts | 143° |
| 2026-05-06 12:13 | 40.47452 | -3.56827 | 1978 ft | 27 kts | 144° |
| 2026-05-06 12:14 | 40.47322 | -3.56693 | 1976 ft | 21 kts | 141° |
| 2026-05-06 12:14 | 40.47201 | -3.56564 | 1972 ft | 23 kts | 142° |
| 2026-05-06 12:14 | 40.47057 | -3.56467 | 1970 ft | 23 kts | 167° |
| 2026-05-06 12:14 | 40.46921 | -3.56459 | 1972 ft | 10 kts | 182° |
| 2026-05-06 12:15 | 40.46879 | -3.56502 | 1974 ft | 7 kts | 270° |
| 2026-05-06 12:15 | 40.46883 | -3.56582 | 1975 ft | 13 kts | 274° |
| 2026-05-06 12:15 | 40.46840 | -3.56654 | 1977 ft | 11 kts | 187° |
| 2026-05-06 12:15 | 40.46749 | -3.56666 | 1977 ft | 13 kts | 184° |
| 2026-05-06 12:16 | 40.46666 | -3.56695 | 1978 ft | 10 kts | 233° |
| 2026-05-06 12:16 | 40.46664 | -3.56752 | 1980 ft | 4 kts | 272° |
| 2026-05-06 12:16 | 40.46663 | -3.56794 | 1981 ft | 4 kts | 268° |
| 2026-05-06 12:16 | 40.46663 | -3.56824 | 1982 ft | 3 kts | 269° |
| 2026-05-06 12:17 | 40.46663 | -3.56849 | 1982 ft | 0 kts | 270° |